Pierces Corner, New York
Current Conditions -  °F | °C
As of 12:58 PM on Saturday 25 Oct 2014 (Local Time) from KGTB Reporting Station
Scattered Clouds Scattered Clouds  
Wind Chill: 15°   Ceiling: Unl
Heat Index: 15°   Visibility: 10mi
Dew Point:   Wind: 16mph
Humidity: 68%   Direction: 220°SW
Pressure: 29.62"   Gusts: 25mph
Location:  44.3309°N, 75.4775°W
Report Text: KGTB 251658Z AUTO 22014G22KT 10SM FEW023 SCT042 15/09 A2962 RMK AO2 SLP032 T01460087
Loading
Personal Weather Stations






























Interactive Weather Map
Tropical Storm Tracking
New forecast layout! Learn more

10-Day Weather Forecast

Advertisements
Track Severe Weather on mobile